createdAt,value
2024-03-23T00:00:00.959Z,97166.77
2024-03-23T00:02:31.177Z,97166.16
2024-03-23T00:04:58.169Z,97161.30
2024-03-23T00:07:25.010Z,97159.67
2024-03-23T00:09:51.931Z,97157.98
2024-03-23T00:12:18.795Z,97158.06
2024-03-23T00:14:45.794Z,97157.45
2024-03-23T00:17:12.903Z,97152.09
2024-03-23T00:19:39.943Z,97150.45
2024-03-23T00:22:06.921Z,97150.02
2024-03-23T00:24:33.945Z,97147.46
2024-03-23T00:27:01.152Z,97144.66
2024-03-23T00:29:28.382Z,97139.19
2024-03-23T00:31:56.710Z,97129.81
2024-03-23T00:34:23.958Z,97121.70
2024-03-23T00:36:51.486Z,97119.92
2024-03-23T00:39:18.473Z,97112.77
2024-03-23T00:41:45.515Z,97107.34
2024-03-23T00:44:13.681Z,97106.98
2024-03-23T00:46:41.028Z,97106.89
2024-03-23T00:49:08.070Z,97106.02
2024-03-23T00:51:35.144Z,97107.65
2024-03-23T00:54:02.109Z,97104.77
2024-03-23T00:56:29.223Z,97102.11
2024-03-23T00:58:56.261Z,97100.55
2024-03-23T01:01:23.370Z,97095.58
2024-03-23T01:03:50.382Z,97094.08
2024-03-23T01:06:17.428Z,97096.30
2024-03-23T01:08:44.368Z,97092.80
2024-03-23T01:11:11.490Z,97096.95
2024-03-23T01:13:38.546Z,97097.19
2024-03-23T01:16:05.847Z,97095.02
2024-03-23T01:18:34.225Z,97093.05
2024-03-23T01:21:01.271Z,97088.23
2024-03-23T01:23:28.264Z,97089.11
2024-03-23T01:25:56.268Z,97082.11
2024-03-23T01:28:23.465Z,97081.55
2024-03-23T01:30:50.460Z,97079.36
2024-03-23T01:33:17.352Z,97077.17
2024-03-23T01:35:44.255Z,97074.54
2024-03-23T01:38:11.274Z,97072.98
2024-03-23T01:40:38.250Z,97071.44
2024-03-23T01:43:09.530Z,97066.45
2024-03-23T01:45:36.794Z,97063.30
2024-03-23T01:48:04.571Z,97059.23
2024-03-23T01:50:35.007Z,97055.83
2024-03-23T01:53:05.615Z,97056.27
2024-03-23T01:55:34.185Z,97052.70
2024-03-23T01:58:01.280Z,97049.11
2024-03-23T02:03:30.947Z,97043.27
2024-03-23T02:05:58.741Z,97039.33
2024-03-23T02:08:26.290Z,97039.60
2024-03-23T02:11:12.387Z,97035.56
2024-03-23T02:13:39.437Z,97032.14
2024-03-23T02:16:08.167Z,97027.92
2024-03-23T02:18:35.250Z,97023.84
2024-03-23T02:21:02.356Z,97022.05
2024-03-23T02:23:29.349Z,97018.56
2024-03-23T02:25:56.380Z,97018.92
2024-03-23T02:28:23.919Z,97012.41
2024-03-23T02:30:51.552Z,97009.57
2024-03-23T02:33:18.846Z,97006.84
2024-03-23T02:35:46.573Z,97002.85
2024-03-23T02:38:13.580Z,97001.48
2024-03-23T02:40:40.644Z,96996.66
2024-03-23T02:43:07.631Z,96993.33
2024-03-23T02:45:34.608Z,96991.77
2024-03-23T02:48:01.617Z,96990.61
2024-03-23T02:50:28.633Z,96993.39
2024-03-23T02:52:55.697Z,96994.96
2024-03-23T02:55:22.743Z,96997.48
2024-03-23T02:57:49.653Z,96991.56
2024-03-23T03:00:17.495Z,96987.29
2024-03-23T03:02:44.778Z,96979.56
2024-03-23T03:05:12.505Z,96978.92
2024-03-23T03:07:42.211Z,96985.36
2024-03-23T03:10:12.410Z,96988.20
2024-03-23T03:12:39.501Z,96985.08
2024-03-23T03:15:07.139Z,96986.53
2024-03-23T03:17:34.171Z,96972.41
2024-03-23T03:20:01.253Z,96965.38
2024-03-23T03:22:28.249Z,96965.02
2024-03-23T03:24:55.244Z,96957.03
2024-03-23T03:27:23.953Z,96957.55
2024-03-23T03:29:51.012Z,96945.92
2024-03-23T03:32:18.095Z,96946.00
2024-03-23T03:34:45.225Z,96953.95
2024-03-23T03:37:12.194Z,96943.47
2024-03-23T03:39:39.225Z,96934.55
2024-03-23T03:42:08.301Z,96940.40
2024-03-23T03:44:35.226Z,96944.66
2024-03-23T03:47:02.213Z,96948.52
2024-03-23T03:49:29.246Z,96948.30
2024-03-23T03:51:56.285Z,96953.70
2024-03-23T03:54:23.411Z,96954.94
2024-03-23T03:56:50.509Z,96948.95
2024-03-23T03:59:19.383Z,96951.85
2024-03-23T04:01:46.391Z,96946.77
2024-03-23T04:04:14.012Z,96948.45
2024-03-23T04:06:41.023Z,96948.55
2024-03-23T04:09:08.192Z,96941.64
2024-03-23T04:11:35.223Z,96934.00
2024-03-23T04:14:02.756Z,96934.73
2024-03-23T04:16:31.052Z,96931.32
2024-03-23T04:18:58.015Z,96935.59
2024-03-23T04:21:25.084Z,96939.34
2024-03-23T04:23:52.464Z,96938.33
2024-03-23T04:26:19.576Z,96937.25
2024-03-23T04:28:47.055Z,96943.40
2024-03-23T04:31:14.063Z,96935.39
2024-03-23T04:33:41.138Z,96926.22
2024-03-23T04:36:08.587Z,96923.73
2024-03-23T04:38:35.846Z,96923.84
2024-03-23T04:41:03.566Z,96916.78
2024-03-23T04:43:31.018Z,96900.67
2024-03-23T04:45:58.167Z,96898.16
2024-03-23T04:48:25.368Z,96903.22
2024-03-23T04:50:58.822Z,96893.24
2024-03-23T04:53:29.386Z,96892.17
2024-03-23T04:56:00.697Z,96886.31
2024-03-23T04:58:27.813Z,96880.45
2024-03-23T05:00:58.942Z,96874.48
2024-03-23T05:03:26.021Z,96871.00
2024-03-23T05:05:53.091Z,96868.73
2024-03-23T05:08:20.109Z,96866.81
2024-03-23T05:10:47.330Z,96866.85
2024-03-23T05:13:14.373Z,96863.83
2024-03-23T05:15:41.379Z,96866.14
2024-03-23T05:18:08.724Z,96871.56
2024-03-23T05:20:35.730Z,96872.16
2024-03-23T05:23:02.741Z,96873.35
2024-03-23T05:25:29.882Z,96869.95
2024-03-23T06:05:35.743Z,96846.41
2024-03-23T06:08:02.589Z,96843.32
2024-03-23T06:10:29.681Z,96836.63
2024-03-23T06:12:56.689Z,96832.99
2024-03-23T06:15:23.952Z,96836.48
2024-03-23T06:17:50.955Z,96841.81
2024-03-23T06:20:19.205Z,96841.27
2024-03-23T06:22:46.056Z,96842.55
2024-03-23T06:25:14.078Z,96840.28
2024-03-23T06:27:41.102Z,96840.66
2024-03-23T06:30:08.976Z,96835.43
2024-03-23T06:32:36.025Z,96828.71
2024-03-23T06:35:09.379Z,96828.23
2024-03-23T06:37:46.813Z,96822.75
2024-03-23T06:40:13.950Z,96788.67
2024-03-23T06:42:40.988Z,96773.71
2024-03-23T06:45:08.359Z,96773.91
2024-03-23T06:47:35.792Z,96790.48
2024-03-23T06:50:04.424Z,96794.65
2024-03-23T06:52:32.064Z,96785.20
2024-03-23T06:54:59.505Z,96795.38
2024-03-23T06:57:26.857Z,96795.11
2024-03-23T06:59:53.927Z,96787.95
2024-03-23T07:02:21.069Z,96791.06
2024-03-23T07:04:49.421Z,96791.50
2024-03-23T07:07:16.355Z,96788.63
2024-03-23T07:09:43.286Z,96782.15
2024-03-23T07:12:10.212Z,96781.36
2024-03-23T07:14:37.333Z,96780.17
2024-03-23T07:17:04.298Z,96778.48
2024-03-23T07:19:34.143Z,96775.48
2024-03-23T07:22:01.102Z,96775.52
2024-03-23T07:24:27.994Z,96774.53
2024-03-23T07:26:56.483Z,96771.06
2024-03-23T07:29:24.634Z,96771.49
2024-03-23T07:31:51.630Z,96764.30
2024-03-23T07:34:18.493Z,96763.77
2024-03-23T07:36:45.789Z,96757.02
2024-03-23T07:39:13.405Z,96755.98
2024-03-23T07:41:40.517Z,96752.70
2024-03-23T07:44:07.465Z,96751.77
2024-03-23T07:46:34.406Z,96751.00
2024-03-23T07:49:01.266Z,96753.38
2024-03-23T07:51:28.296Z,96750.52
2024-03-23T07:53:55.383Z,96751.05
2024-03-23T07:56:24.067Z,96743.14
2024-03-23T07:58:51.728Z,96736.24
2024-03-23T08:01:18.982Z,96730.41
2024-03-23T08:03:47.542Z,96726.69
2024-03-23T08:06:21.073Z,96723.47
2024-03-23T08:08:51.321Z,96717.30
2024-03-23T08:11:18.274Z,96708.66
2024-03-23T08:13:46.796Z,96704.71
2024-03-23T08:16:14.974Z,96701.73
2024-03-23T08:18:41.988Z,96696.69
2024-03-23T08:21:09.033Z,96690.55
2024-03-23T08:23:39.273Z,96685.80
2024-03-23T08:26:13.042Z,96683.66
2024-03-23T08:28:40.927Z,96674.27
2024-03-23T08:31:12.753Z,96665.48
2024-03-23T08:33:40.972Z,96662.63
2024-03-23T08:36:09.787Z,96662.52
2024-03-23T08:38:37.453Z,96656.88
2024-03-23T08:41:09.334Z,96652.89
2024-03-23T08:43:43.727Z,96649.83
2024-03-23T08:46:13.123Z,96651.67
2024-03-23T08:48:46.898Z,96643.38
2024-03-23T08:51:16.310Z,96636.92
2024-03-23T08:53:44.486Z,96637.77
2024-03-23T08:56:12.137Z,96636.09
2024-03-23T08:58:42.852Z,96627.30
2024-03-23T09:01:12.282Z,96619.77
2024-03-23T09:03:39.621Z,96618.44
2024-03-23T09:06:15.247Z,96613.41
2024-03-23T09:08:43.153Z,96600.47
2024-03-23T09:11:13.691Z,96596.85
2024-03-23T09:13:41.225Z,96594.98
2024-03-23T09:16:10.866Z,96589.04
2024-03-23T09:18:38.520Z,96583.23
2024-03-23T09:21:12.154Z,96580.58
2024-03-23T09:23:39.223Z,96571.51
2024-03-23T09:26:08.896Z,96568.39
2024-03-23T09:28:35.865Z,96559.80
2024-03-23T09:31:07.759Z,96555.54
2024-03-23T09:33:36.058Z,96549.41
2024-03-23T09:36:07.172Z,96541.09
2024-03-23T09:38:34.709Z,96537.05
2024-03-23T09:41:01.754Z,96531.67
2024-03-23T09:43:31.982Z,96530.71
2024-03-23T09:45:59.166Z,96520.27
2024-03-23T09:48:26.153Z,96516.86
2024-03-23T09:50:53.216Z,96506.77
2024-03-23T09:53:20.124Z,96501.64
2024-03-23T09:55:48.767Z,96497.70
2024-03-23T09:58:18.432Z,96490.29
2024-03-23T10:00:46.242Z,96485.73
2024-03-23T10:03:14.750Z,96486.04
2024-03-23T10:05:47.510Z,96476.88
2024-03-23T10:08:15.567Z,96472.58
2024-03-23T10:10:57.597Z,96469.39
2024-03-23T10:13:32.099Z,96468.66
2024-03-23T10:16:05.998Z,96462.72
2024-03-23T10:18:38.255Z,96458.12
2024-03-23T10:21:12.874Z,96445.94
2024-03-23T10:23:45.047Z,96437.05
2024-03-23T10:26:36.224Z,96430.98
2024-03-23T10:29:13.716Z,96424.64
2024-03-23T10:31:46.911Z,96419.89
2024-03-23T10:34:16.516Z,96416.89
2024-03-23T10:37:04.907Z,96418.27
2024-03-23T10:39:58.919Z,96415.66
2024-03-23T10:42:28.899Z,96405.77
2024-03-23T10:45:39.464Z,96400.14
2024-03-23T10:48:49.720Z,96396.06
2024-03-23T10:51:38.796Z,96387.02
2024-03-23T10:54:24.970Z,96379.89
2024-03-23T10:57:32.494Z,96371.71
2024-03-23T11:00:20.355Z,96353.45
2024-03-23T11:03:13.977Z,96346.41
2024-03-23T11:06:49.996Z,96348.31
2024-03-23T11:10:21.007Z,96339.29
2024-03-23T11:14:04.043Z,96343.60
2024-03-23T11:17:03.529Z,96333.07
2024-03-23T11:20:50.614Z,96318.86
2024-03-23T11:24:18.966Z,96322.57
2024-03-23T11:28:05.598Z,96315.23
2024-03-23T11:31:52.196Z,96300.64
2024-03-23T11:35:01.078Z,96288.19
2024-03-23T11:38:16.811Z,96271.58
2024-03-23T11:41:43.371Z,96257.27
2024-03-23T11:44:56.162Z,96240.80
2024-03-23T11:48:22.896Z,96223.84
2024-03-23T11:51:53.011Z,96215.55
2024-03-23T11:55:14.360Z,96207.75
2024-03-23T11:59:01.314Z,96195.70
2024-03-23T12:02:27.932Z,96187.78
2024-03-23T12:05:54.937Z,96184.56
2024-03-23T12:09:10.766Z,96185.81
2024-03-23T12:12:40.614Z,96177.46
2024-03-23T12:16:08.330Z,96169.23
2024-03-23T12:19:35.099Z,96163.84
2024-03-23T12:23:21.676Z,96151.52
2024-03-23T12:26:55.045Z,96128.60
2024-03-23T12:30:22.503Z,96126.96
2024-03-23T12:33:49.792Z,96117.73
2024-03-23T12:37:36.439Z,96122.64
2024-03-23T12:41:07.429Z,96107.95
2024-03-23T12:44:18.762Z,96098.20
2024-03-23T12:48:02.376Z,96088.10
2024-03-23T12:51:49.005Z,96077.39
2024-03-23T12:55:36.013Z,96081.58
2024-03-23T12:59:03.325Z,96065.13
2024-03-23T13:02:30.300Z,96042.85
2024-03-23T13:06:11.039Z,96040.08
2024-03-23T13:09:44.573Z,96031.29
2024-03-23T13:13:14.947Z,96021.73
2024-03-23T13:17:01.655Z,96009.73
2024-03-23T13:20:30.955Z,96006.70
2024-03-23T13:24:17.865Z,96000.90
2024-03-23T13:28:04.619Z,95985.21
2024-03-23T13:31:31.355Z,95986.23
2024-03-23T13:35:18.283Z,95982.56
2024-03-23T13:38:47.829Z,95986.05
2024-03-23T13:42:34.503Z,95993.84
2024-03-23T13:46:21.170Z,95986.27
2024-03-23T13:49:53.288Z,96007.23
2024-03-23T13:53:20.787Z,96001.86
2024-03-23T13:57:03.402Z,96006.21
2024-03-23T14:00:11.062Z,96030.68
2024-03-23T14:03:57.791Z,96060.27
2024-03-23T14:07:29.757Z,96149.07
2024-03-23T14:10:59.865Z,96210.94
2024-03-23T14:13:29.667Z,96250.48
2024-03-23T14:15:58.343Z,96256.04
2024-03-23T14:18:27.435Z,96270.80
2024-03-23T14:21:02.067Z,96279.45
2024-03-23T14:23:34.123Z,96290.98
2024-03-23T14:26:01.918Z,96300.19
2024-03-23T14:28:32.011Z,96299.50
2024-03-23T14:30:59.819Z,96313.81
2024-03-23T14:33:29.970Z,96338.50
2024-03-23T14:35:58.584Z,96343.21
2024-03-23T14:38:27.447Z,96351.52
2024-03-23T14:40:54.607Z,96345.90
2024-03-23T14:43:22.592Z,96348.72
2024-03-23T14:46:09.707Z,96344.05
2024-03-23T14:48:38.923Z,96340.25
2024-03-23T14:51:09.700Z,96341.27
2024-03-23T14:53:39.404Z,96324.04
2024-03-23T14:56:07.605Z,96311.93
2024-03-23T14:58:37.734Z,96302.68
2024-03-23T15:01:13.797Z,96298.59
2024-03-23T15:03:40.953Z,96290.45
2024-03-23T15:06:10.800Z,96284.88
2024-03-23T15:08:39.331Z,96283.05
2024-03-23T15:11:09.114Z,96292.63
2024-03-23T15:13:37.214Z,96302.53
2024-03-23T15:16:05.759Z,96313.84
2024-03-23T15:18:34.151Z,96311.62
2024-03-23T15:21:11.183Z,96295.45
2024-03-23T15:23:38.230Z,96273.16
2024-03-23T15:26:07.349Z,96271.63
2024-03-23T15:28:45.486Z,96274.70
2024-03-23T15:31:12.816Z,96288.19
2024-03-23T15:33:41.093Z,96303.50
2024-03-23T15:36:08.239Z,96304.43
2024-03-23T15:38:35.401Z,96302.41
2024-03-23T15:41:03.084Z,96299.14
2024-03-23T15:43:30.822Z,96314.98
2024-03-23T15:46:07.174Z,96324.60
2024-03-23T15:48:36.087Z,96313.52
2024-03-23T15:51:07.518Z,96313.11
2024-03-23T15:53:34.594Z,96314.45
2024-03-23T15:56:03.267Z,96312.04
2024-03-23T15:58:32.287Z,96304.34
2024-03-23T16:01:03.783Z,96299.84
2024-03-23T16:03:33.384Z,96301.80
2024-03-23T16:06:08.543Z,96303.27
2024-03-23T16:08:36.282Z,96303.46
2024-03-23T16:11:05.721Z,96312.05
2024-03-23T16:13:34.203Z,96317.68
2024-03-23T16:16:11.995Z,96311.79
2024-03-23T16:18:43.104Z,96315.14
2024-03-23T16:21:10.192Z,96316.79
2024-03-23T16:23:42.979Z,96320.95
2024-03-23T16:26:11.636Z,96321.88
2024-03-23T16:28:39.269Z,96332.77
2024-03-23T16:31:10.532Z,96344.41
2024-03-23T16:33:39.184Z,96348.44
2024-03-23T16:36:08.473Z,96353.96
2024-03-23T16:38:36.439Z,96351.85
2024-03-23T16:41:08.598Z,96357.43
2024-03-23T16:43:37.167Z,96363.46
2024-03-23T16:46:06.399Z,96379.88
2024-03-23T16:48:34.809Z,96395.67
2024-03-23T16:51:06.757Z,96401.77
2024-03-23T16:53:33.947Z,96409.27
2024-03-23T16:56:04.767Z,96451.20
2024-03-23T16:58:32.854Z,96470.54
2024-03-23T17:01:19.678Z,96473.77
2024-03-23T17:03:51.295Z,96479.70
2024-03-23T17:06:19.799Z,96482.46
2024-03-23T17:08:51.499Z,96493.08
2024-03-23T17:11:19.831Z,96503.41
2024-03-23T17:13:46.734Z,96520.46
2024-03-23T17:16:14.441Z,96530.95
2024-03-23T17:18:41.366Z,96550.20
2024-03-23T17:21:08.198Z,96561.48
2024-03-23T17:23:36.310Z,96564.06
2024-03-23T17:26:03.267Z,96571.48
2024-03-23T17:28:30.351Z,96577.74
2024-03-23T17:30:57.785Z,96581.70
2024-03-23T17:33:24.783Z,96592.05
2024-03-23T17:35:51.751Z,96595.64
2024-03-23T17:38:18.608Z,96597.95
2024-03-23T17:40:45.578Z,96604.47
2024-03-23T17:43:12.496Z,96601.95
2024-03-23T17:45:39.254Z,96611.20
2024-03-23T17:48:06.483Z,96615.44
2024-03-23T17:50:36.263Z,96620.39
2024-03-23T17:53:03.862Z,96622.95
2024-03-23T17:55:31.124Z,96621.61
2024-03-23T17:58:00.227Z,96617.67
2024-03-23T18:00:27.163Z,96623.94
2024-03-23T18:02:53.944Z,96636.38
2024-03-23T18:05:22.953Z,96633.04
2024-03-23T18:07:50.307Z,96627.73
2024-03-23T18:10:17.224Z,96632.98
2024-03-23T18:12:47.349Z,96632.78
2024-03-23T18:15:19.547Z,96643.41
2024-03-23T18:17:53.334Z,96650.05
2024-03-23T18:20:20.719Z,96649.41
2024-03-23T18:22:47.724Z,96656.36
2024-03-23T18:25:14.708Z,96666.05
2024-03-23T18:27:41.655Z,96672.52
2024-03-23T18:30:08.790Z,96680.30
2024-03-23T18:32:35.744Z,96685.06
2024-03-23T18:35:02.694Z,96681.58
2024-03-23T18:37:29.618Z,96693.09
2024-03-23T18:39:56.599Z,96694.61
2024-03-23T18:42:23.479Z,96696.52
2024-03-23T18:44:50.481Z,96694.75
2024-03-23T18:47:17.396Z,96689.85
2024-03-23T18:49:44.571Z,96689.74
2024-03-23T18:52:11.446Z,96702.77
2024-03-23T18:54:38.381Z,96700.36
2024-03-23T18:57:05.586Z,96703.30
2024-03-23T18:59:32.505Z,96701.63
2024-03-23T19:01:59.428Z,96700.38
2024-03-23T19:04:26.583Z,96707.29
2024-03-23T19:06:53.485Z,96706.80
2024-03-23T19:09:20.514Z,96713.69
2024-03-23T19:11:47.603Z,96718.13
2024-03-23T19:14:14.626Z,96718.56
2024-03-23T19:16:41.658Z,96720.70
2024-03-23T19:19:08.590Z,96725.94
2024-03-23T19:21:35.549Z,96721.87
2024-03-23T19:24:03.067Z,96726.13
2024-03-23T19:26:29.989Z,96729.84
2024-03-23T19:28:57.068Z,96734.73
2024-03-23T19:31:24.078Z,96738.36
2024-03-23T19:33:51.046Z,96737.44
2024-03-23T19:36:18.189Z,96737.93
2024-03-23T19:38:45.053Z,96725.85
2024-03-23T19:41:12.068Z,96723.29
2024-03-23T19:43:39.605Z,96718.44
2024-03-23T19:46:06.964Z,96715.95
2024-03-23T19:48:33.973Z,96700.94
2024-03-23T19:51:02.220Z,96698.89
2024-03-23T19:53:29.369Z,96707.36
2024-03-23T19:56:05.062Z,96712.27
2024-03-23T19:58:32.166Z,96717.38
2024-03-23T20:01:06.970Z,96717.02
2024-03-23T20:03:34.111Z,96722.34
2024-03-23T20:06:01.242Z,96728.41
2024-03-23T20:08:28.139Z,96735.73
2024-03-23T20:10:55.146Z,96746.82
2024-03-23T20:13:22.571Z,96750.73
2024-03-23T20:15:55.954Z,96750.72
2024-03-23T20:18:23.537Z,96754.14
2024-03-23T20:20:53.782Z,96749.73
2024-03-23T20:23:21.199Z,96743.27
2024-03-23T20:26:01.139Z,96744.85
2024-03-23T20:28:28.523Z,96752.75
2024-03-23T20:30:59.808Z,96760.85
2024-03-23T20:33:27.857Z,96766.30
2024-03-23T20:35:56.070Z,96764.50
2024-03-23T20:38:23.983Z,96756.35
2024-03-23T20:40:55.658Z,96755.34
2024-03-23T20:43:24.717Z,96751.10
2024-03-23T20:46:01.695Z,96743.03
2024-03-23T20:48:29.927Z,96745.60
2024-03-23T20:51:01.137Z,96737.04
2024-03-23T20:53:28.709Z,96733.33
2024-03-23T20:55:57.570Z,96730.48
2024-03-23T20:58:26.122Z,96724.47
2024-03-23T21:00:53.756Z,96717.61
2024-03-23T21:03:21.349Z,96711.48
2024-03-23T21:05:53.015Z,96708.00
2024-03-23T21:08:20.855Z,96704.52
2024-03-23T21:10:52.031Z,96706.80
2024-03-23T21:13:24.686Z,96714.36
2024-03-23T21:16:02.505Z,96718.52
2024-03-23T21:18:30.575Z,96724.98
2024-03-23T21:20:59.037Z,96734.61
2024-03-23T21:23:26.916Z,96732.58
2024-03-23T21:25:58.334Z,96730.71
2024-03-23T21:28:25.169Z,96735.97
2024-03-23T21:30:51.966Z,96736.61
2024-03-23T21:33:18.863Z,96741.66
2024-03-23T21:35:46.307Z,96747.63
2024-03-23T21:38:13.353Z,96744.95
2024-03-23T21:40:40.962Z,96744.23
2024-03-23T21:43:08.084Z,96734.14
2024-03-23T21:45:35.556Z,96727.55
2024-03-23T21:48:02.561Z,96715.47
2024-03-23T21:50:29.468Z,96709.30
2024-03-23T21:52:56.431Z,96707.52
2024-03-23T21:55:24.019Z,96696.80
2024-03-23T21:57:50.971Z,96687.98
2024-03-23T22:00:19.336Z,96688.01
2024-03-23T22:02:46.289Z,96687.81
2024-03-23T22:05:13.511Z,96689.23
2024-03-23T22:07:40.475Z,96694.31
2024-03-23T22:10:08.154Z,96706.02
2024-03-23T22:12:35.229Z,96708.66
2024-03-23T22:15:02.431Z,96703.23
2024-03-23T22:17:29.433Z,96713.98
2024-03-23T22:19:56.223Z,96721.93
2024-03-23T22:22:23.179Z,96729.88
2024-03-23T22:24:50.195Z,96736.41
2024-03-23T22:27:17.775Z,96740.20
2024-03-23T22:29:47.167Z,96739.03
2024-03-23T22:32:14.060Z,96726.83
2024-03-23T22:34:42.177Z,96719.96
2024-03-23T22:37:09.063Z,96713.55
2024-03-23T22:39:36.256Z,96704.73
2024-03-23T22:42:03.335Z,96702.89
2024-03-23T22:44:30.401Z,96701.39
2024-03-23T22:46:57.693Z,96695.77
2024-03-23T22:49:24.529Z,96688.38
2024-03-23T22:51:51.313Z,96694.60
2024-03-23T22:54:18.854Z,96698.14
2024-03-23T22:56:45.811Z,96708.89
2024-03-23T22:59:12.836Z,96717.20
2024-03-23T23:01:39.700Z,96729.64
2024-03-23T23:04:06.712Z,96739.59
2024-03-23T23:06:33.649Z,96753.29
2024-03-23T23:09:00.637Z,96762.55
2024-03-23T23:11:27.482Z,96763.60
2024-03-23T23:13:54.859Z,96757.32
2024-03-23T23:16:22.093Z,96758.14
2024-03-23T23:18:49.154Z,96760.17
2024-03-23T23:21:16.180Z,96760.49
2024-03-23T23:23:43.317Z,96752.48
2024-03-23T23:26:10.270Z,96745.12
2024-03-23T23:28:37.642Z,96737.19
2024-03-23T23:31:05.117Z,96741.38
2024-03-23T23:33:32.105Z,96739.25
2024-03-23T23:35:59.339Z,96722.59
2024-03-23T23:38:27.103Z,96708.86
2024-03-23T23:40:54.275Z,96711.08
2024-03-23T23:43:21.328Z,96718.69
2024-03-23T23:45:48.452Z,96729.54
2024-03-23T23:48:15.590Z,96733.96
2024-03-23T23:50:42.486Z,96734.92
2024-03-23T23:53:09.521Z,96740.80
2024-03-23T23:55:36.681Z,96742.38
2024-03-23T23:58:03.967Z,96737.71
